createdAt,value
2023-05-10T00:01:55.433Z,1947.13
2023-05-10T00:04:23.391Z,1834.07
2023-05-10T00:06:51.175Z,1916.93
2023-05-10T00:09:18.848Z,1939.10
2023-05-10T00:11:46.575Z,1783.17
2023-05-10T00:14:14.470Z,1813.13
2023-05-10T00:16:43.605Z,1829.50
2023-05-10T00:19:11.415Z,2042.80
2023-05-10T00:21:39.204Z,1802.40
2023-05-10T00:24:07.558Z,1826.13
2023-05-10T00:26:35.664Z,1957.80
2023-05-10T00:29:04.255Z,1995.47
2023-05-10T00:31:32.042Z,1866.67
2023-05-10T00:34:01.142Z,1946.60
2023-05-10T00:36:29.172Z,2078.43
2023-05-10T00:38:56.908Z,1986.23
2023-05-10T00:41:24.922Z,2016.90
2023-05-10T00:43:53.017Z,1922.73
2023-05-10T00:46:20.928Z,1952.43
2023-05-10T00:48:49.269Z,1999.67
2023-05-10T00:51:18.400Z,1986.37
2023-05-10T00:53:47.395Z,1979.23
2023-05-10T00:56:15.310Z,1933.03
2023-05-10T00:58:43.562Z,1946.90
2023-05-10T01:01:11.742Z,1982.23
2023-05-10T01:03:41.624Z,1902.03
2023-05-10T01:06:10.921Z,1990.53
2023-05-10T01:08:40.573Z,2023.77
2023-05-10T01:11:08.525Z,1987.83
2023-05-10T01:13:40.446Z,1971.13
2023-05-10T01:16:09.080Z,2061.20
2023-05-10T01:18:40.269Z,2100.43
2023-05-10T01:21:21.529Z,1986.30
2023-05-10T01:24:25.908Z,2000.80
2023-05-10T01:27:19.626Z,1968.63
2023-05-10T01:30:28.356Z,1841.93
2023-05-10T01:33:03.893Z,1785.80
2023-05-10T01:35:39.458Z,1996.80
2023-05-10T01:38:24.525Z,2102.07
2023-05-10T01:41:04.371Z,1894.70
2023-05-10T01:43:39.101Z,1944.57
2023-05-10T01:46:11.922Z,1893.57
2023-05-10T01:48:49.111Z,1882.63
2023-05-10T01:51:21.688Z,1991.63
2023-05-10T01:53:50.770Z,1965.17
2023-05-10T01:56:22.263Z,1930.33
2023-05-10T01:58:52.486Z,2091.03
2023-05-10T02:01:22.005Z,2022.20
2023-05-10T02:03:52.743Z,2077.03
2023-05-10T02:06:24.125Z,2013.80
2023-05-10T02:08:53.509Z,2086.03
2023-05-10T02:11:23.019Z,2098.33
2023-05-10T02:13:52.340Z,2006.43
2023-05-10T02:16:24.635Z,2040.03
2023-05-10T02:18:55.146Z,2010.80
2023-05-10T02:21:24.641Z,1894.10
2023-05-10T02:23:55.149Z,2001.73
2023-05-10T02:26:26.143Z,2068.00
2023-05-10T02:28:55.670Z,2007.63
2023-05-10T02:31:24.504Z,1987.90
2023-05-10T02:33:55.465Z,1957.63
2023-05-10T02:36:24.693Z,2117.80
2023-05-10T02:38:54.667Z,2103.77
2023-05-10T02:41:25.823Z,2051.70
2023-05-10T02:43:58.080Z,2062.67
2023-05-10T02:46:25.929Z,1971.00
2023-05-10T02:48:55.098Z,2002.47
2023-05-10T02:51:26.670Z,2135.50
2023-05-10T02:53:57.001Z,2067.00
2023-05-10T02:56:27.720Z,2018.27
2023-05-10T02:58:55.486Z,2067.53
2023-05-10T03:01:23.386Z,2008.07
2023-05-10T03:03:51.388Z,2044.40
2023-05-10T03:06:20.698Z,2092.60
2023-05-10T03:08:48.788Z,1968.93
2023-05-10T03:11:30.241Z,2004.47
2023-05-10T03:14:18.452Z,1925.03
2023-05-10T03:16:49.019Z,2043.70
2023-05-10T03:19:24.799Z,2078.67
2023-05-10T03:21:55.746Z,1964.53
2023-05-10T03:24:29.258Z,2262.27
2023-05-10T03:27:03.680Z,2020.97
2023-05-10T03:29:32.782Z,2009.20
2023-05-10T03:32:01.170Z,2051.80
2023-05-10T03:34:32.217Z,2063.97
2023-05-10T03:37:01.311Z,2052.37
2023-05-10T03:39:32.339Z,1933.40
2023-05-10T03:42:02.080Z,2062.27
2023-05-10T03:44:31.365Z,1935.90
2023-05-10T03:46:59.115Z,2090.93
2023-05-10T03:49:27.253Z,1974.13
2023-05-10T03:51:54.960Z,2043.30
2023-05-10T03:54:24.064Z,1997.13
2023-05-10T03:56:52.114Z,2057.93
2023-05-10T03:59:22.346Z,2019.17
2023-05-10T04:01:50.276Z,2093.87
2023-05-10T04:04:19.592Z,1967.43
2023-05-10T04:06:50.278Z,2078.37
2023-05-10T04:09:18.147Z,1987.83
2023-05-10T04:11:47.228Z,2002.03
2023-05-10T04:14:14.995Z,2027.27
2023-05-10T04:16:42.780Z,2035.70
2023-05-10T04:19:10.539Z,1950.80
2023-05-10T04:21:38.446Z,1918.90
2023-05-10T04:24:06.565Z,2014.13
2023-05-10T04:26:34.299Z,2196.77
2023-05-10T04:29:03.439Z,1982.37
2023-05-10T04:31:31.248Z,1954.07
2023-05-10T04:33:59.013Z,2078.37
2023-05-10T04:36:26.812Z,1919.23
2023-05-10T04:38:54.523Z,1578.40
2023-05-10T04:41:22.616Z,1514.90
2023-05-10T04:43:51.066Z,2002.93
2023-05-10T04:46:20.134Z,1671.50
2023-05-10T04:48:47.886Z,1393.73
2023-05-10T04:51:15.604Z,1523.67
2023-05-10T04:53:51.155Z,1523.23
2023-05-10T04:56:25.489Z,1252.57
2023-05-10T04:58:53.211Z,1254.30
2023-05-10T05:01:22.315Z,1232.43
2023-05-10T05:03:50.483Z,1262.63
2023-05-10T05:06:18.238Z,1464.50
2023-05-10T05:08:45.899Z,1272.23
2023-05-10T05:11:13.575Z,1296.40
2023-05-10T05:13:41.347Z,1308.47
2023-05-10T05:16:09.304Z,1436.50
2023-05-10T05:18:38.389Z,1470.87
2023-05-10T05:21:15.867Z,1566.70
2023-05-10T05:23:43.709Z,996.60
2023-05-10T05:26:11.714Z,1065.20
2023-05-10T05:28:39.505Z,961.80
2023-05-10T05:31:08.427Z,1064.17
2023-05-10T05:33:38.422Z,1073.73
2023-05-10T05:36:07.395Z,1509.73
2023-05-10T05:38:35.182Z,1366.03
2023-05-10T05:41:03.566Z,1497.50
2023-05-10T05:43:31.255Z,1630.83
2023-05-10T05:45:59.594Z,1667.10
2023-05-10T05:48:28.414Z,1919.03
2023-05-10T05:50:58.373Z,1797.93
2023-05-10T05:53:26.221Z,1698.77
2023-05-10T05:55:55.098Z,1805.07
2023-05-10T05:58:23.516Z,1385.27
2023-05-10T06:00:51.466Z,1500.57
2023-05-10T06:03:19.448Z,1304.87
2023-05-10T06:05:47.415Z,911.30
2023-05-10T06:08:16.536Z,1307.93
2023-05-10T06:10:44.601Z,1468.60
2023-05-10T06:13:12.462Z,1796.70
2023-05-10T06:15:40.506Z,1655.70
2023-05-10T06:18:08.274Z,1177.73
2023-05-10T06:20:36.064Z,1860.27
2023-05-10T06:23:03.807Z,1697.43
2023-05-10T06:25:32.851Z,2266.67
2023-05-10T06:28:00.878Z,2266.67
2023-05-10T06:30:29.854Z,2266.67
2023-05-10T06:32:58.429Z,2266.67
2023-05-10T06:35:26.374Z,2266.67
2023-05-10T06:37:54.570Z,2266.67
2023-05-10T06:40:22.339Z,2266.67
2023-05-10T06:42:51.608Z,2266.67
2023-05-10T06:45:19.971Z,2266.67
2023-05-10T06:47:47.986Z,2266.67
2023-05-10T06:50:16.088Z,1780.67
2023-05-10T06:52:44.167Z,1642.13
2023-05-10T06:55:12.443Z,1786.87
2023-05-10T06:57:40.148Z,631.97
2023-05-10T07:00:11.196Z,1835.77
2023-05-10T07:02:39.096Z,1863.50
2023-05-10T07:05:07.740Z,1761.23
2023-05-10T07:07:35.522Z,1710.90
2023-05-10T07:10:03.522Z,1749.03
2023-05-10T07:12:31.355Z,1883.23
2023-05-10T07:14:59.123Z,687.23
2023-05-10T07:17:28.665Z,2266.67
2023-05-10T07:19:56.561Z,2266.67
2023-05-10T07:22:24.373Z,2266.67
2023-05-10T07:24:52.323Z,2266.67
2023-05-10T07:27:20.095Z,2266.67
2023-05-10T07:29:47.806Z,2266.67
2023-05-10T07:32:15.822Z,2266.67
2023-05-10T07:34:44.872Z,2266.67
2023-05-10T07:37:12.622Z,2266.67
2023-05-10T07:39:40.543Z,2266.67
2023-05-10T07:42:08.260Z,2266.67
2023-05-10T07:44:36.085Z,2266.67
2023-05-10T07:47:03.880Z,2266.67
2023-05-10T07:49:31.667Z,2266.67
2023-05-10T07:52:01.048Z,2266.67
2023-05-10T07:54:28.832Z,2266.67
2023-05-10T07:56:56.548Z,2266.67
2023-05-10T07:59:24.294Z,2266.67
2023-05-10T08:01:52.376Z,2266.67
2023-05-10T08:04:20.149Z,2266.67
2023-05-10T08:06:48.245Z,2266.67
2023-05-10T08:09:18.761Z,2266.67
2023-05-10T08:11:46.498Z,2266.67
2023-05-10T08:14:14.225Z,2266.67
2023-05-10T08:16:42.275Z,2266.67
2023-05-10T08:19:10.228Z,2266.67
2023-05-10T08:21:38.345Z,2266.67
2023-05-10T08:24:06.818Z,2266.67
2023-05-10T08:26:35.932Z,2266.67
2023-05-10T08:29:03.939Z,2266.67
2023-05-10T08:31:31.773Z,2266.67
2023-05-10T08:33:59.643Z,2266.67
2023-05-10T08:36:28.584Z,2266.67
2023-05-10T08:38:56.658Z,2266.67
2023-05-10T08:41:26.746Z,1682.73
2023-05-10T08:43:56.127Z,2266.67
2023-05-10T08:46:25.093Z,2266.67
2023-05-10T08:48:53.606Z,1893.97
2023-05-10T08:51:24.704Z,805.47
2023-05-10T08:53:52.593Z,1702.23
2023-05-10T08:56:21.225Z,1704.67
2023-05-10T08:58:49.887Z,2266.67
2023-05-10T09:01:20.427Z,2266.67
2023-05-10T09:03:49.323Z,2266.67
2023-05-10T09:06:17.199Z,2266.67
2023-05-10T09:08:45.520Z,2266.67
2023-05-10T09:11:14.502Z,2266.67
2023-05-10T09:13:50.968Z,2266.67
2023-05-10T09:16:22.198Z,2266.67
2023-05-10T09:18:51.273Z,2266.67
2023-05-10T09:21:19.065Z,2266.67
2023-05-10T09:23:48.641Z,2266.67
2023-05-10T09:26:17.064Z,2266.67
2023-05-10T09:28:56.427Z,2266.67
2023-05-10T09:31:26.253Z,2266.67
2023-05-10T09:33:54.277Z,2266.67
2023-05-10T09:36:21.987Z,2266.67
2023-05-10T09:38:51.821Z,2266.67
2023-05-10T09:41:21.117Z,2266.67
2023-05-10T09:43:49.465Z,2266.67
2023-05-10T09:46:17.673Z,2266.67
2023-05-10T09:48:48.416Z,2266.67
2023-05-10T09:51:22.494Z,2266.67
2023-05-10T09:53:51.631Z,2266.67
2023-05-10T09:56:35.018Z,2266.67
2023-05-10T09:59:06.334Z,2266.67
2023-05-10T10:01:34.332Z,2266.67
2023-05-10T10:04:05.779Z,2266.67
2023-05-10T10:06:38.332Z,2266.67
2023-05-10T10:09:06.969Z,2266.67
2023-05-10T10:11:36.556Z,2266.67
2023-05-10T10:14:04.480Z,2266.67
2023-05-10T10:16:32.999Z,2266.67
2023-05-10T10:19:01.013Z,2266.67
2023-05-10T10:21:30.710Z,2266.67
2023-05-10T10:23:58.372Z,2266.67
2023-05-10T10:26:26.407Z,2266.67
2023-05-10T10:29:06.749Z,2266.67
2023-05-10T10:31:41.021Z,2266.67
2023-05-10T10:34:10.453Z,2266.67
2023-05-10T10:36:48.395Z,2266.67
2023-05-10T10:39:17.502Z,2266.67
2023-05-10T10:41:52.268Z,2266.67
2023-05-10T10:44:42.902Z,2266.67
2023-05-10T10:47:25.941Z,2266.67
2023-05-10T10:50:04.498Z,1583.30
2023-05-10T10:52:37.911Z,1654.50
2023-05-10T10:55:09.197Z,2266.67
2023-05-10T10:57:46.589Z,1643.83
2023-05-10T11:00:22.037Z,2266.67
2023-05-10T11:02:52.444Z,2266.67
2023-05-10T11:05:34.860Z,2266.67
2023-05-10T11:08:10.626Z,1665.07
2023-05-10T11:10:38.917Z,2266.67
2023-05-10T11:13:08.041Z,1596.80
2023-05-10T11:15:37.497Z,1676.83
2023-05-10T11:18:19.962Z,1831.87
2023-05-10T11:20:52.842Z,648.33
2023-05-10T11:23:22.356Z,1845.40
2023-05-10T11:25:51.619Z,666.80
2023-05-10T11:28:20.806Z,1716.40
2023-05-10T11:30:49.383Z,1830.83
2023-05-10T11:33:17.933Z,737.80
2023-05-10T11:35:45.739Z,1857.00
2023-05-10T11:38:14.870Z,1030.47
2023-05-10T11:40:44.102Z,1115.33
2023-05-10T11:43:13.156Z,1181.43
2023-05-10T11:45:44.459Z,1200.93
2023-05-10T11:48:12.417Z,1562.80
2023-05-10T11:50:40.491Z,1691.57
2023-05-10T11:53:08.286Z,1535.00
2023-05-10T11:55:36.242Z,1861.77
2023-05-10T11:58:05.338Z,1523.63
2023-05-10T12:00:34.262Z,1349.70
2023-05-10T12:03:03.276Z,1836.90
2023-05-10T12:05:35.035Z,1470.63
2023-05-10T12:08:16.022Z,1489.63
2023-05-10T12:10:43.828Z,1178.03
2023-05-10T12:13:16.937Z,1335.83
2023-05-10T12:15:45.457Z,1242.33
2023-05-10T12:18:14.477Z,1654.80
2023-05-10T12:20:42.752Z,1619.63
2023-05-10T12:23:11.752Z,997.47
2023-05-10T12:25:40.222Z,900.00
2023-05-10T12:28:10.132Z,2266.67
2023-05-10T12:30:39.774Z,2266.67
2023-05-10T12:33:10.936Z,2266.67
2023-05-10T12:35:49.272Z,2266.67
2023-05-10T12:38:31.627Z,2266.67
2023-05-10T12:41:00.738Z,2266.67
2023-05-10T12:43:28.870Z,2266.67
2023-05-10T12:45:58.632Z,2266.67
2023-05-10T12:48:26.899Z,2266.67
2023-05-10T12:50:54.656Z,2266.67
2023-05-10T12:53:22.425Z,2266.67
2023-05-10T12:55:50.272Z,2266.67
2023-05-10T12:58:31.588Z,2266.67
2023-05-10T13:01:05.188Z,2266.67
2023-05-10T13:03:33.112Z,2266.67
2023-05-10T13:06:00.961Z,2266.67
2023-05-10T13:08:30.710Z,2266.67
2023-05-10T13:10:58.486Z,2266.67
2023-05-10T13:13:26.250Z,2266.67
2023-05-10T13:15:54.173Z,2266.67
2023-05-10T13:18:23.343Z,2266.67
2023-05-10T13:20:51.540Z,2266.67
2023-05-10T13:23:19.285Z,2266.67
2023-05-10T13:25:47.011Z,2266.67
2023-05-10T13:28:14.758Z,2266.67
2023-05-10T13:30:42.561Z,2266.67
2023-05-10T13:33:10.274Z,2266.67
2023-05-10T13:35:39.438Z,2266.67
2023-05-10T13:38:08.857Z,1591.90
2023-05-10T13:40:37.060Z,1641.37
2023-05-10T13:43:04.840Z,1774.07
2023-05-10T13:45:32.597Z,677.13
2023-05-10T13:48:00.450Z,1829.07
2023-05-10T13:50:28.256Z,2266.67
2023-05-10T13:52:57.413Z,1861.57
2023-05-10T13:55:25.182Z,1847.97
2023-05-10T13:57:53.295Z,982.53
2023-05-10T14:00:21.381Z,1959.97
2023-05-10T14:02:49.299Z,1826.30
2023-05-10T14:05:18.712Z,743.33
2023-05-10T14:07:47.397Z,1783.40
2023-05-10T14:10:16.599Z,2266.67
2023-05-10T14:12:44.535Z,1611.07
2023-05-10T14:15:12.792Z,2266.67
2023-05-10T14:17:40.717Z,2266.67
2023-05-10T14:20:09.746Z,2266.67
2023-05-10T14:22:37.515Z,2266.67
2023-05-10T14:25:07.654Z,2266.67
2023-05-10T14:27:36.720Z,2266.67
2023-05-10T14:30:04.918Z,2266.67
2023-05-10T14:32:33.092Z,2266.67
2023-05-10T14:35:01.128Z,2266.67
2023-05-10T14:37:28.909Z,2266.67
2023-05-10T14:39:56.611Z,2266.67
2023-05-10T14:42:24.409Z,2266.67
2023-05-10T14:44:53.686Z,2266.67
2023-05-10T14:47:21.432Z,2266.67
2023-05-10T14:49:49.724Z,2266.67
2023-05-10T14:52:17.576Z,2266.67
2023-05-10T14:54:45.370Z,2266.67
2023-05-10T14:57:13.708Z,2266.67
2023-05-10T14:59:41.487Z,2266.67
2023-05-10T15:02:11.430Z,1697.03
2023-05-10T15:04:39.726Z,1697.83
2023-05-10T15:07:07.927Z,1664.37
2023-05-10T15:09:35.675Z,1643.33
2023-05-10T15:12:03.417Z,2266.67
2023-05-10T15:14:31.371Z,2266.67
2023-05-10T15:16:59.092Z,2266.67
2023-05-10T15:19:29.699Z,2266.67
2023-05-10T15:21:57.666Z,2266.67
2023-05-10T15:24:25.394Z,2266.67
2023-05-10T15:26:53.108Z,2266.67
2023-05-10T15:29:21.816Z,2266.67
2023-05-10T15:31:50.649Z,2266.67
2023-05-10T15:34:19.013Z,2266.67
2023-05-10T15:36:48.115Z,2266.67
2023-05-10T15:39:16.055Z,2266.67
2023-05-10T15:41:43.778Z,2266.67
2023-05-10T15:44:11.932Z,2266.67
2023-05-10T15:46:39.876Z,2266.67
2023-05-10T15:49:07.930Z,2266.67
2023-05-10T15:51:36.759Z,2266.67
2023-05-10T15:54:08.253Z,2266.67
2023-05-10T15:56:36.801Z,2266.67
2023-05-10T15:59:06.031Z,2266.67
2023-05-10T16:01:33.805Z,2266.67
2023-05-10T16:04:01.604Z,2266.67
2023-05-10T16:06:29.369Z,2266.67
2023-05-10T16:08:57.506Z,2266.67
2023-05-10T16:11:26.576Z,2266.67
2023-05-10T16:13:54.470Z,2266.67
2023-05-10T16:16:22.368Z,1648.70
2023-05-10T16:18:50.539Z,2266.67
2023-05-10T16:21:18.372Z,2266.67
2023-05-10T16:23:46.588Z,2266.67
2023-05-10T16:26:14.394Z,2266.67
2023-05-10T16:28:43.493Z,1553.47
2023-05-10T16:31:11.250Z,2266.67
2023-05-10T16:33:38.987Z,2266.67
2023-05-10T16:36:06.882Z,2266.67
2023-05-10T16:38:34.589Z,2266.67
2023-05-10T16:41:03.522Z,2266.67
2023-05-10T16:43:32.358Z,2266.67
2023-05-10T16:46:01.715Z,2266.67
2023-05-10T16:48:29.480Z,2266.67
2023-05-10T16:50:57.214Z,2266.67
2023-05-10T16:53:26.765Z,2266.67
2023-05-10T16:55:54.527Z,2266.67
2023-05-10T16:58:22.211Z,2266.67
2023-05-10T17:00:51.358Z,2266.67
2023-05-10T17:03:20.569Z,2266.67
2023-05-10T17:05:48.661Z,2266.67
2023-05-10T17:08:17.708Z,2266.67
2023-05-10T17:10:45.481Z,2266.67
2023-05-10T17:13:14.560Z,2266.67
2023-05-10T17:15:42.378Z,2266.67
2023-05-10T17:18:10.603Z,2266.67
2023-05-10T17:20:39.812Z,2266.67
2023-05-10T17:23:08.554Z,2266.67
2023-05-10T17:25:39.399Z,2266.67
2023-05-10T17:28:07.178Z,2266.67
2023-05-10T17:30:35.014Z,2266.67
2023-05-10T17:33:02.975Z,2266.67
2023-05-10T17:35:31.603Z,2266.67
2023-05-10T17:38:00.718Z,2266.67
2023-05-10T17:40:28.486Z,2266.67
2023-05-10T17:42:56.344Z,2266.67
2023-05-10T17:45:24.514Z,2266.67
2023-05-10T17:47:55.162Z,2266.67
2023-05-10T17:50:22.899Z,2266.67
2023-05-10T17:52:50.805Z,2266.67
2023-05-10T17:55:20.101Z,2266.67
2023-05-10T17:57:49.889Z,2266.67
2023-05-10T18:00:19.253Z,2266.67
2023-05-10T18:02:49.919Z,2266.67
2023-05-10T18:05:18.375Z,2266.67
2023-05-10T18:07:49.307Z,2266.67
2023-05-10T18:10:17.013Z,2266.67
2023-05-10T18:12:46.139Z,2266.67
2023-05-10T18:15:13.942Z,2266.67
2023-05-10T18:17:44.042Z,2266.67
2023-05-10T18:20:12.560Z,2266.67
2023-05-10T18:22:40.288Z,2266.67
2023-05-10T18:25:09.032Z,2266.67
2023-05-10T18:27:36.800Z,2266.67
2023-05-10T18:30:09.309Z,2266.67
2023-05-10T18:32:38.356Z,2266.67
2023-05-10T18:35:06.876Z,2266.67
2023-05-10T18:37:35.121Z,2266.67
2023-05-10T18:40:04.866Z,2266.67
2023-05-10T18:42:33.066Z,2266.67
2023-05-10T18:45:03.449Z,2266.67
2023-05-10T18:47:32.687Z,2266.67
2023-05-10T18:50:09.862Z,2266.67
2023-05-10T18:52:37.805Z,2266.67
2023-05-10T18:58:59.485Z,2266.67
2023-05-10T19:01:29.206Z,2266.67
2023-05-10T19:04:11.657Z,2266.67
2023-05-10T19:06:41.519Z,2266.67
2023-05-10T19:09:11.905Z,2266.67
2023-05-10T19:11:39.796Z,2266.67
2023-05-10T19:14:07.664Z,2266.67
2023-05-10T19:16:36.758Z,2266.67
2023-05-10T19:19:08.528Z,2266.67
2023-05-10T19:21:43.294Z,2266.67
2023-05-10T19:24:23.867Z,2266.67
2023-05-10T19:26:51.968Z,2266.67
2023-05-10T19:32:26.823Z,2266.67
2023-05-10T19:35:02.750Z,2266.67
2023-05-10T19:37:30.691Z,2266.67
2023-05-10T19:39:58.470Z,2266.67
2023-05-10T19:42:26.446Z,2266.67
2023-05-10T19:44:54.250Z,2266.67
2023-05-10T19:47:22.001Z,2266.67
2023-05-10T19:49:50.054Z,2266.67
2023-05-10T19:52:19.209Z,2266.67
2023-05-10T19:54:46.971Z,2266.67
2023-05-10T19:57:14.841Z,2266.67
2023-05-10T19:59:42.658Z,2266.67
2023-05-10T20:02:10.467Z,2266.67
2023-05-10T20:04:38.291Z,2266.67
2023-05-10T20:07:06.088Z,2266.67
2023-05-10T20:09:35.211Z,2266.67
2023-05-10T20:12:03.027Z,2266.67
2023-05-10T20:14:30.857Z,2266.67
2023-05-10T20:16:58.812Z,2266.67
2023-05-10T20:19:26.694Z,2266.67
2023-05-10T20:21:55.979Z,2266.67
2023-05-10T20:24:23.799Z,2266.67
2023-05-10T20:26:53.237Z,2266.67
2023-05-10T20:29:21.047Z,2266.67
2023-05-10T20:31:49.240Z,2266.67
2023-05-10T20:34:17.190Z,2266.67
2023-05-10T20:36:44.967Z,2266.67
2023-05-10T20:39:12.792Z,2266.67
2023-05-10T20:41:40.555Z,2266.67
2023-05-10T20:44:09.733Z,2266.67
2023-05-10T20:46:37.801Z,2266.67
2023-05-10T20:49:05.774Z,2266.67
2023-05-10T20:51:33.812Z,2266.67
2023-05-10T20:54:04.293Z,2266.67
2023-05-10T20:56:32.077Z,2266.67
2023-05-10T20:58:59.879Z,2266.67
2023-05-10T21:01:36.155Z,2266.67
2023-05-10T21:04:06.339Z,2266.67
2023-05-10T21:06:34.115Z,2266.67
2023-05-10T21:09:02.029Z,2266.67
2023-05-10T21:11:29.866Z,2266.67
2023-05-10T21:13:58.204Z,2266.67
2023-05-10T21:16:26.194Z,2266.67
2023-05-10T21:18:55.508Z,2266.67
2023-05-10T21:21:23.551Z,2266.67
2023-05-10T21:23:51.505Z,2266.67
2023-05-10T21:26:19.431Z,2266.67
2023-05-10T21:28:47.418Z,2266.67
2023-05-10T21:31:16.026Z,2266.67
2023-05-10T21:33:43.821Z,2266.67
2023-05-10T21:36:13.284Z,2266.67
2023-05-10T21:38:42.269Z,2266.67
2023-05-10T21:41:10.125Z,2266.67
2023-05-10T21:43:37.958Z,2266.67
2023-05-10T21:46:05.961Z,2266.67
2023-05-10T21:48:33.867Z,2266.67
2023-05-10T21:51:02.030Z,2266.67
2023-05-10T21:53:31.233Z,2266.67
2023-05-10T21:55:59.133Z,2266.67
2023-05-10T21:58:27.581Z,2266.67
2023-05-10T22:00:56.107Z,2266.67
2023-05-10T22:03:24.131Z,2266.67
2023-05-10T22:05:52.459Z,2266.67
2023-05-10T22:08:20.928Z,2266.67
2023-05-10T22:10:51.168Z,2266.67
2023-05-10T22:13:19.286Z,2266.67
2023-05-10T22:15:47.211Z,2266.67
2023-05-10T22:18:15.015Z,2266.67
2023-05-10T22:20:45.543Z,2266.67
2023-05-10T22:23:13.346Z,2266.67
2023-05-10T22:25:41.193Z,2266.67
2023-05-10T22:28:10.393Z,2266.67
2023-05-10T22:30:38.182Z,2266.67
2023-05-10T22:33:06.515Z,2266.67
2023-05-10T22:35:34.391Z,2266.67
2023-05-10T22:38:02.158Z,2266.67
2023-05-10T22:40:29.941Z,2266.67
2023-05-10T22:42:57.770Z,2266.67
2023-05-10T22:45:27.177Z,2266.67
2023-05-10T22:47:54.970Z,2266.67
2023-05-10T22:50:22.818Z,2266.67
2023-05-10T22:52:50.940Z,2266.67
2023-05-10T22:55:18.767Z,2266.67
2023-05-10T22:57:46.536Z,2266.67
2023-05-10T23:00:15.177Z,2266.67
2023-05-10T23:02:44.340Z,2266.67
2023-05-10T23:05:12.336Z,2266.67
2023-05-10T23:07:40.226Z,2266.67
2023-05-10T23:10:09.203Z,2266.67
2023-05-10T23:12:37.133Z,2266.67
2023-05-10T23:15:05.631Z,2266.67
2023-05-10T23:17:33.470Z,2266.67
2023-05-10T23:20:02.613Z,2266.67
2023-05-10T23:22:30.516Z,2266.67
2023-05-10T23:24:58.313Z,2266.67
2023-05-10T23:27:29.633Z,2266.67
2023-05-10T23:29:57.546Z,2266.67
2023-05-10T23:32:25.440Z,2266.67
2023-05-10T23:34:53.800Z,2266.67
2023-05-10T23:37:22.993Z,2266.67
2023-05-10T23:39:50.970Z,2266.67
2023-05-10T23:42:18.795Z,2266.67
2023-05-10T23:44:46.766Z,2266.67
2023-05-10T23:47:14.551Z,2266.67
2023-05-10T23:49:42.946Z,2266.67
2023-05-10T23:52:10.771Z,2266.67
2023-05-10T23:54:39.885Z,2266.67
2023-05-10T23:57:07.837Z,2266.67
2023-05-10T23:59:35.652Z,2266.67
